Gorham, New York
Current Conditions -  °F | °C
As of 5:53 AM on Sunday 26 Oct 2014 (Local Time) from KPEO Reporting Station
Clear Clear  
Wind Chill: 45°   Ceiling: Unl
Heat Index: 49°   Visibility: 10mi
Dew Point: 35°   Wind: 10mph
Humidity: 59%   Direction: 270°W
Pressure: 29.62"   Gusts: 26mph
Location:  42.8°N, 77.13°W
Report Text: KPEO 260953Z AUTO 27009G23KT 10SM CLR 09/02 A2962 RMK AO2 SLP030 T00940017
Loading
Personal Weather Stations






























Interactive Weather Map
Tropical Storm Tracking
New forecast layout! Learn more

10-Day Weather Forecast

Advertisements
Track Severe Weather on mobile